createdAt,value
2022-09-14T00:00:39.335Z,8.70
2022-09-14T00:01:39.366Z,8.49
2022-09-14T00:02:39.404Z,8.70
2022-09-14T00:03:39.333Z,8.49
2022-09-14T00:04:39.277Z,8.59
2022-09-14T00:05:39.291Z,8.92
2022-09-14T00:06:39.247Z,8.16
2022-09-14T00:07:39.227Z,8.70
2022-09-14T00:08:39.222Z,8.59
2022-09-14T00:09:39.208Z,8.70
2022-09-14T00:10:39.206Z,9.13
2022-09-14T00:11:39.179Z,8.38
2022-09-14T00:12:39.170Z,8.38
2022-09-14T00:13:39.210Z,8.70
2022-09-14T00:14:39.137Z,8.81
2022-09-14T00:15:39.139Z,8.27
2022-09-14T00:16:39.216Z,8.70
2022-09-14T00:17:39.101Z,8.59
2022-09-14T00:18:39.090Z,9.35
2022-09-14T00:19:39.071Z,8.81
2022-09-14T00:20:39.069Z,9.13
2022-09-14T00:21:39.043Z,8.81
2022-09-14T00:22:39.032Z,9.13
2022-09-14T00:23:39.023Z,9.24
2022-09-14T00:24:39.002Z,8.59
2022-09-14T00:25:39.002Z,8.59
2022-09-14T00:26:38.983Z,8.59
2022-09-14T00:27:38.964Z,8.49
2022-09-14T00:28:38.993Z,8.81
2022-09-14T00:29:38.935Z,8.59
2022-09-14T00:30:38.933Z,8.59
2022-09-14T00:31:38.928Z,8.70
2022-09-14T00:32:38.897Z,8.49
2022-09-14T00:33:38.886Z,9.13
2022-09-14T00:34:38.870Z,8.81
2022-09-14T00:35:38.867Z,8.92
2022-09-14T00:36:38.856Z,9.13
2022-09-14T00:37:38.838Z,8.49
2022-09-14T00:38:38.817Z,8.49
2022-09-14T00:39:38.807Z,8.92
2022-09-14T00:40:38.798Z,8.59
2022-09-14T00:41:38.781Z,8.70
2022-09-14T00:42:38.769Z,8.81
2022-09-14T00:43:38.762Z,8.59
2022-09-14T00:44:38.749Z,8.81
2022-09-14T00:45:38.744Z,9.02
2022-09-14T00:46:38.711Z,8.49
2022-09-14T00:47:38.692Z,8.59
2022-09-14T00:48:38.680Z,8.70
2022-09-14T00:49:38.680Z,8.81
2022-09-14T00:50:38.651Z,8.81
2022-09-14T00:51:38.642Z,8.92
2022-09-14T00:52:38.632Z,8.59
2022-09-14T00:53:38.622Z,8.70
2022-09-14T00:54:38.612Z,8.59
2022-09-14T00:55:38.583Z,8.92
2022-09-14T00:56:38.575Z,8.81
2022-09-14T00:57:38.554Z,8.70
2022-09-14T00:58:38.564Z,8.59
2022-09-14T00:59:38.544Z,9.02
2022-09-14T01:00:39.486Z,9.02
2022-09-14T01:01:38.598Z,8.59
2022-09-14T01:02:38.583Z,8.59
2022-09-14T01:03:38.477Z,8.59
2022-09-14T01:04:39.432Z,8.92
2022-09-14T01:05:38.450Z,9.13
2022-09-14T01:06:38.447Z,8.59
2022-09-14T01:07:38.427Z,8.70
2022-09-14T01:08:38.411Z,8.59
2022-09-14T01:09:38.404Z,8.92
2022-09-14T01:10:38.387Z,8.49
2022-09-14T01:11:38.370Z,8.49
2022-09-14T01:12:38.368Z,8.59
2022-09-14T01:13:38.350Z,8.59
2022-09-14T01:14:38.339Z,9.13
2022-09-14T01:15:38.319Z,8.70
2022-09-14T01:16:38.365Z,8.81
2022-09-14T01:17:38.290Z,9.13
2022-09-14T01:18:38.290Z,8.59
2022-09-14T01:19:38.291Z,8.81
2022-09-14T01:20:38.930Z,8.59
2022-09-14T01:21:38.247Z,8.59
2022-09-14T01:22:38.231Z,8.70
2022-09-14T01:23:38.213Z,8.81
2022-09-14T01:24:38.211Z,8.70
2022-09-14T01:25:38.182Z,8.92
2022-09-14T01:26:38.173Z,8.59
2022-09-14T01:27:38.153Z,8.81
2022-09-14T01:28:38.143Z,9.02
2022-09-14T01:29:38.134Z,8.92
2022-09-14T01:30:38.116Z,9.02
2022-09-14T01:31:38.157Z,8.92
2022-09-14T01:32:38.094Z,9.13
2022-09-14T01:33:38.076Z,9.35
2022-09-14T01:34:38.075Z,8.59
2022-09-14T01:35:38.065Z,8.81
2022-09-14T01:36:38.053Z,8.59
2022-09-14T01:37:38.024Z,8.59
2022-09-14T01:38:38.006Z,8.70
2022-09-14T01:39:38.007Z,8.81
2022-09-14T01:40:37.987Z,8.49
2022-09-14T01:41:37.978Z,8.81
2022-09-14T01:42:37.948Z,8.70
2022-09-14T01:43:37.949Z,8.49
2022-09-14T01:44:37.929Z,8.59
2022-09-14T01:45:37.984Z,8.49
2022-09-14T01:46:37.900Z,8.70
2022-09-14T01:47:37.890Z,8.59
2022-09-14T01:48:37.879Z,8.70
2022-09-14T01:49:37.877Z,8.92
2022-09-14T01:50:37.851Z,8.81
2022-09-14T01:51:37.831Z,9.13
2022-09-14T01:52:37.819Z,8.70
2022-09-14T01:53:37.858Z,8.70
2022-09-14T01:54:37.802Z,8.81
2022-09-14T01:55:37.805Z,9.02
2022-09-14T01:56:37.764Z,9.02
2022-09-14T01:57:37.755Z,8.81
2022-09-14T01:58:37.732Z,8.92
2022-09-14T01:59:37.745Z,8.81
2022-09-14T02:00:37.737Z,8.70
2022-09-14T02:01:37.731Z,8.59
2022-09-14T02:02:37.772Z,8.81
2022-09-14T02:03:37.674Z,8.59
2022-09-14T02:04:37.655Z,8.49
2022-09-14T02:05:37.639Z,8.59
2022-09-14T02:06:37.625Z,8.81
2022-09-14T02:07:38.580Z,8.81
2022-09-14T02:08:38.556Z,8.81
2022-09-14T02:09:37.597Z,8.59
2022-09-14T02:10:37.577Z,8.49
2022-09-14T02:11:37.568Z,9.02
2022-09-14T02:12:37.538Z,8.92
2022-09-14T02:13:37.538Z,8.59
2022-09-14T02:14:37.522Z,8.59
2022-09-14T02:15:37.529Z,8.70
2022-09-14T02:16:37.574Z,8.59
2022-09-14T02:17:37.480Z,8.59
2022-09-14T02:18:37.462Z,8.70
2022-09-14T02:19:37.456Z,8.92
2022-09-14T02:20:37.441Z,8.70
2022-09-14T02:21:37.421Z,8.70
2022-09-14T02:22:37.411Z,8.49
2022-09-14T02:23:37.391Z,8.70
2022-09-14T02:24:38.332Z,9.02
2022-09-14T02:25:37.372Z,8.49
2022-09-14T02:26:37.356Z,8.92
2022-09-14T02:27:37.342Z,8.70
2022-09-14T02:28:37.334Z,8.81
2022-09-14T02:29:37.326Z,8.59
2022-09-14T02:30:37.294Z,8.70
2022-09-14T02:31:37.453Z,8.81
2022-09-14T02:32:37.274Z,8.38
2022-09-14T02:33:37.265Z,8.70
2022-09-14T02:34:37.255Z,8.92
2022-09-14T02:35:37.236Z,8.92
2022-09-14T02:36:37.217Z,9.24
2022-09-14T02:37:37.218Z,8.81
2022-09-14T02:38:37.187Z,9.02
2022-09-14T02:39:37.191Z,8.81
2022-09-14T02:40:37.158Z,8.81
2022-09-14T02:41:37.168Z,8.59
2022-09-14T02:42:37.154Z,8.81
2022-09-14T02:43:37.128Z,8.70
2022-09-14T02:44:37.118Z,8.70
2022-09-14T02:45:37.099Z,9.13
2022-09-14T02:46:37.141Z,9.13
2022-09-14T02:47:37.080Z,8.59
2022-09-14T02:48:37.067Z,8.70
2022-09-14T02:49:37.052Z,8.70
2022-09-14T02:50:37.055Z,8.70
2022-09-14T02:51:37.031Z,8.81
2022-09-14T02:52:37.001Z,9.02
2022-09-14T02:53:37.010Z,8.81
2022-09-14T02:54:36.972Z,8.70
2022-09-14T02:55:36.970Z,8.70
2022-09-14T02:56:36.953Z,9.13
2022-09-14T02:57:36.944Z,8.92
2022-09-14T02:58:36.933Z,8.59
2022-09-14T02:59:36.916Z,9.13
2022-09-14T03:00:36.966Z,8.70
2022-09-14T03:01:36.944Z,8.81
2022-09-14T03:02:36.875Z,8.70
2022-09-14T03:03:36.865Z,8.81
2022-09-14T03:04:36.845Z,9.13
2022-09-14T03:05:36.835Z,9.24
2022-09-14T03:06:36.826Z,8.49
2022-09-14T03:07:36.806Z,8.49
2022-09-14T03:08:36.797Z,8.81
2022-09-14T03:09:36.778Z,8.70
2022-09-14T03:10:36.757Z,9.02
2022-09-14T03:11:36.750Z,9.13
2022-09-14T03:12:36.735Z,9.02
2022-09-14T03:13:36.728Z,8.49
2022-09-14T03:14:36.709Z,8.70
2022-09-14T03:15:36.699Z,8.92
2022-09-14T03:16:36.777Z,9.02
2022-09-14T03:17:36.670Z,8.81
2022-09-14T03:18:36.668Z,9.02
2022-09-14T03:19:36.640Z,8.92
2022-09-14T03:20:36.631Z,9.13
2022-09-14T03:21:36.621Z,9.02
2022-09-14T03:22:36.602Z,8.49
2022-09-14T03:23:36.592Z,8.92
2022-09-14T03:24:36.573Z,8.59
2022-09-14T03:25:36.557Z,9.02
2022-09-14T03:26:36.543Z,8.70
2022-09-14T03:27:36.533Z,8.81
2022-09-14T03:28:36.534Z,8.70
2022-09-14T03:29:36.504Z,9.02
2022-09-14T03:30:36.486Z,8.70
2022-09-14T03:31:36.516Z,8.59
2022-09-14T03:32:36.475Z,8.81
2022-09-14T03:33:36.445Z,8.70
2022-09-14T03:34:36.436Z,8.59
2022-09-14T03:35:36.437Z,9.02
2022-09-14T03:36:36.407Z,8.59
2022-09-14T03:37:36.406Z,8.70
2022-09-14T03:38:36.388Z,8.70
2022-09-14T03:39:36.367Z,8.59
2022-09-14T03:40:36.397Z,8.70
2022-09-14T03:41:36.348Z,8.81
2022-09-14T03:42:36.339Z,8.59
2022-09-14T03:43:36.310Z,8.70
2022-09-14T03:44:36.310Z,8.70
2022-09-14T03:45:36.279Z,8.59
2022-09-14T03:46:36.319Z,9.24
2022-09-14T03:47:36.272Z,8.70
2022-09-14T03:48:36.250Z,9.13
2022-09-14T03:49:36.230Z,8.59
2022-09-14T03:50:36.221Z,8.92
2022-09-14T03:51:36.201Z,8.70
2022-09-14T03:52:36.202Z,8.59
2022-09-14T03:53:36.186Z,9.13
2022-09-14T03:54:36.163Z,8.70
2022-09-14T03:55:36.148Z,9.13
2022-09-14T03:56:36.144Z,8.81
2022-09-14T03:57:36.152Z,8.49
2022-09-14T03:58:36.124Z,8.59
2022-09-14T03:59:39.402Z,8.92
2022-09-14T04:00:37.091Z,9.13
2022-09-14T04:01:36.120Z,9.02
2022-09-14T04:02:36.122Z,9.24
2022-09-14T04:03:36.045Z,8.59
2022-09-14T04:04:36.986Z,8.81
2022-09-14T04:05:36.017Z,8.70
2022-09-14T04:06:36.009Z,9.02
2022-09-14T04:07:35.997Z,8.49
2022-09-14T04:08:35.978Z,8.92
2022-09-14T04:09:35.965Z,8.70
2022-09-14T04:10:35.959Z,8.70
2022-09-14T04:11:35.937Z,9.02
2022-09-14T04:12:35.931Z,8.59
2022-09-14T04:13:35.911Z,8.59
2022-09-14T04:14:35.896Z,8.70
2022-09-14T04:15:35.880Z,8.59
2022-09-14T04:16:35.908Z,8.81
2022-09-14T04:17:35.860Z,9.13
2022-09-14T04:18:35.840Z,8.59
2022-09-14T04:19:35.832Z,8.59
2022-09-14T04:20:35.812Z,9.02
2022-09-14T04:21:35.801Z,8.59
2022-09-14T04:22:35.795Z,8.92
2022-09-14T04:23:42.346Z,9.02
2022-09-14T04:24:36.762Z,9.13
2022-09-14T04:25:35.743Z,8.59
2022-09-14T04:26:35.736Z,8.92
2022-09-14T04:27:35.723Z,8.70
2022-09-14T04:28:35.708Z,8.92
2022-09-14T04:29:35.691Z,8.70
2022-09-14T04:30:35.704Z,9.02
2022-09-14T04:31:35.806Z,9.02
2022-09-14T04:32:35.656Z,8.59
2022-09-14T04:33:35.638Z,8.59
2022-09-14T04:34:35.634Z,8.49
2022-09-14T04:35:35.607Z,8.92
2022-09-14T04:36:35.596Z,9.02
2022-09-14T04:37:35.587Z,8.59
2022-09-14T04:38:35.576Z,8.81
2022-09-14T04:39:35.555Z,8.81
2022-09-14T04:40:35.549Z,8.59
2022-09-14T04:41:35.528Z,8.70
2022-09-14T04:42:35.528Z,9.13
2022-09-14T04:43:35.516Z,9.24
2022-09-14T04:44:35.490Z,8.38
2022-09-14T04:45:35.481Z,9.02
2022-09-14T04:46:35.506Z,8.59
2022-09-14T04:47:35.456Z,8.92
2022-09-14T04:48:36.387Z,8.70
2022-09-14T04:49:35.430Z,9.02
2022-09-14T04:50:35.411Z,8.59
2022-09-14T04:51:35.392Z,9.13
2022-09-14T04:52:35.391Z,8.59
2022-09-14T04:53:35.365Z,9.13
2022-09-14T04:54:35.353Z,8.81
2022-09-14T04:55:35.342Z,9.02
2022-09-14T04:56:35.324Z,8.70
2022-09-14T04:57:35.319Z,8.81
2022-09-14T04:58:35.321Z,9.02
2022-09-14T04:59:35.294Z,8.59
2022-09-14T05:00:35.274Z,8.70
2022-09-14T05:01:35.294Z,8.81
2022-09-14T05:02:35.290Z,8.59
2022-09-14T05:03:35.247Z,8.49
2022-09-14T05:04:36.176Z,8.59
2022-09-14T05:05:35.206Z,8.49
2022-09-14T05:06:35.199Z,9.02
2022-09-14T05:07:35.184Z,8.59
2022-09-14T05:08:35.175Z,8.70
2022-09-14T05:09:35.147Z,8.70
2022-09-14T05:10:35.137Z,9.02
2022-09-14T05:11:35.127Z,8.59
2022-09-14T05:12:35.125Z,8.59
2022-09-14T05:13:35.098Z,8.59
2022-09-14T05:14:35.089Z,8.59
2022-09-14T05:15:35.092Z,9.02
2022-09-14T05:16:35.051Z,9.02
2022-09-14T05:17:35.060Z,8.70
2022-09-14T05:18:35.031Z,8.81
2022-09-14T05:19:35.010Z,8.59
2022-09-14T05:20:35.001Z,9.02
2022-09-14T05:21:34.981Z,8.70
2022-09-14T05:22:34.981Z,8.70
2022-09-14T05:23:34.955Z,8.59
2022-09-14T05:24:34.954Z,9.24
2022-09-14T05:25:34.933Z,9.13
2022-09-14T05:26:34.924Z,8.70
2022-09-14T05:27:34.903Z,8.59
2022-09-14T05:28:34.903Z,8.92
2022-09-14T05:29:34.875Z,8.81
2022-09-14T05:30:34.870Z,8.92
2022-09-14T05:31:34.913Z,8.70
2022-09-14T05:32:34.845Z,8.92
2022-09-14T05:33:34.826Z,8.70
2022-09-14T05:34:34.807Z,8.59
2022-09-14T05:35:34.797Z,8.59
2022-09-14T05:36:34.786Z,8.59
2022-09-14T05:37:34.776Z,8.49
2022-09-14T05:38:34.756Z,9.13
2022-09-14T05:39:34.738Z,8.70
2022-09-14T05:40:34.728Z,9.35
2022-09-14T05:41:34.738Z,8.59
2022-09-14T05:42:34.709Z,8.70
2022-09-14T05:43:34.688Z,8.81
2022-09-14T05:44:34.679Z,8.70
2022-09-14T05:45:34.666Z,8.49
2022-09-14T05:46:34.741Z,8.59
2022-09-14T05:47:38.890Z,8.81
2022-09-14T05:48:34.617Z,8.92
2022-09-14T05:49:34.730Z,9.02
2022-09-14T05:50:34.590Z,8.92
2022-09-14T05:51:34.581Z,9.13
2022-09-14T05:52:35.532Z,8.70
2022-09-14T05:53:34.542Z,8.70
2022-09-14T05:54:34.543Z,8.49
2022-09-14T05:55:34.520Z,8.59
2022-09-14T05:56:34.514Z,8.59
2022-09-14T05:57:34.504Z,9.02
2022-09-14T05:58:34.483Z,9.13
2022-09-14T05:59:34.464Z,8.59
2022-09-14T06:00:34.463Z,8.70
2022-09-14T06:01:34.494Z,9.13
2022-09-14T06:02:34.433Z,8.70
2022-09-14T06:03:34.406Z,8.59
2022-09-14T06:04:34.396Z,8.70
2022-09-14T06:05:34.426Z,8.59
2022-09-14T06:06:34.387Z,8.59
2022-09-14T06:07:34.356Z,8.59
2022-09-14T06:08:34.349Z,9.13
2022-09-14T06:09:34.328Z,8.59
2022-09-14T06:10:34.326Z,8.81
2022-09-14T06:11:34.298Z,9.24
2022-09-14T06:12:34.308Z,8.81
2022-09-14T06:13:34.269Z,8.49
2022-09-14T06:14:34.258Z,9.02
2022-09-14T06:15:34.248Z,8.70
2022-09-14T06:16:34.239Z,9.13
2022-09-14T06:17:34.227Z,8.81
2022-09-14T06:18:34.211Z,8.70
2022-09-14T06:19:34.205Z,9.02
2022-09-14T06:20:34.181Z,8.59
2022-09-14T06:21:34.175Z,8.92
2022-09-14T06:22:34.162Z,9.02
2022-09-14T06:23:34.149Z,8.49
2022-09-14T06:24:34.133Z,8.92
2022-09-14T06:25:34.113Z,8.81
2022-09-14T06:26:34.102Z,9.02
2022-09-14T06:27:34.092Z,9.13
2022-09-14T06:28:34.073Z,8.49
2022-09-14T06:29:34.053Z,8.70
2022-09-14T06:30:34.046Z,8.70
2022-09-14T06:31:34.035Z,8.81
2022-09-14T06:32:34.024Z,8.59
2022-09-14T06:33:34.005Z,8.81
2022-09-14T06:34:33.987Z,9.02
2022-09-14T06:35:33.975Z,8.70
2022-09-14T06:36:33.967Z,8.59
2022-09-14T06:37:33.956Z,8.70
2022-09-14T06:38:33.946Z,8.59
2022-09-14T06:39:33.927Z,9.13
2022-09-14T06:40:34.004Z,8.70
2022-09-14T06:41:33.898Z,8.70
2022-09-14T06:42:33.887Z,8.92
2022-09-14T06:43:33.868Z,9.02
2022-09-14T06:44:33.858Z,8.92
2022-09-14T06:45:33.838Z,9.13
2022-09-14T06:46:33.829Z,9.02
2022-09-14T06:47:33.819Z,9.02
2022-09-14T06:48:33.821Z,8.70
2022-09-14T06:49:33.780Z,8.92
2022-09-14T06:50:33.773Z,8.81
2022-09-14T06:51:33.761Z,8.59
2022-09-14T06:52:34.013Z,8.81
2022-09-14T06:53:33.732Z,8.59
2022-09-14T06:54:33.713Z,8.81
2022-09-14T06:55:33.702Z,8.49
2022-09-14T06:56:33.704Z,8.59
2022-09-14T06:57:33.673Z,8.70
2022-09-14T06:58:33.674Z,8.59
2022-09-14T06:59:33.658Z,8.70
2022-09-14T07:00:34.592Z,8.81
2022-09-14T07:01:33.634Z,8.70
2022-09-14T07:02:33.669Z,8.81
2022-09-14T07:03:33.605Z,8.70
2022-09-14T07:04:33.576Z,9.13
2022-09-14T07:05:33.565Z,8.49
2022-09-14T07:06:33.558Z,9.02
2022-09-14T07:07:33.546Z,8.92
2022-09-14T07:08:33.526Z,9.02
2022-09-14T07:09:33.517Z,8.70
2022-09-14T07:10:33.497Z,8.70
2022-09-14T07:11:33.497Z,8.70
2022-09-14T07:12:33.480Z,8.70
2022-09-14T07:13:33.459Z,8.81
2022-09-14T07:14:33.447Z,8.70
2022-09-14T07:15:33.459Z,8.59
2022-09-14T07:16:33.430Z,8.81
2022-09-14T07:17:33.400Z,8.70
2022-09-14T07:18:33.390Z,8.38
2022-09-14T07:19:33.375Z,8.59
2022-09-14T07:20:33.360Z,8.70
2022-09-14T07:21:33.351Z,9.24
2022-09-14T07:22:33.339Z,8.59
2022-09-14T07:23:33.321Z,8.70
2022-09-14T07:24:33.311Z,8.59
2022-09-14T07:25:33.292Z,8.59
2022-09-14T07:26:33.324Z,9.02
2022-09-14T07:27:33.273Z,9.13
2022-09-14T07:28:33.316Z,9.02
2022-09-14T07:29:33.233Z,8.81
2022-09-14T07:30:33.258Z,9.24
2022-09-14T07:31:33.224Z,8.70
2022-09-14T07:32:33.204Z,8.70
2022-09-14T07:33:33.186Z,8.70
2022-09-14T07:34:33.180Z,8.70
2022-09-14T07:35:33.155Z,9.13
2022-09-14T07:36:35.135Z,8.49
2022-09-14T07:37:33.138Z,9.13
2022-09-14T07:38:51.176Z,9.13
2022-09-14T07:39:34.106Z,8.92
2022-09-14T07:40:33.212Z,8.70
2022-09-14T07:41:33.087Z,8.81
2022-09-14T07:42:33.067Z,8.70
2022-09-14T07:43:33.049Z,8.70
2022-09-14T07:44:33.048Z,9.02
2022-09-14T07:45:33.073Z,9.13
2022-09-14T07:46:33.030Z,9.13
2022-09-14T07:47:33.001Z,8.59
2022-09-14T07:48:32.981Z,8.70
2022-09-14T07:49:32.982Z,8.59
2022-09-14T07:50:32.960Z,8.81
2022-09-14T07:51:32.952Z,9.13
2022-09-14T07:52:38.014Z,9.45
2022-09-14T07:53:33.921Z,9.02
2022-09-14T07:54:32.902Z,9.02
2022-09-14T07:55:32.899Z,8.81
2022-09-14T07:56:32.883Z,8.70
2022-09-14T07:57:54.541Z,8.92
2022-09-14T07:58:33.852Z,8.70
2022-09-14T07:59:37.212Z,9.13
2022-09-14T08:00:32.823Z,8.70
2022-09-14T08:01:32.863Z,8.70
2022-09-14T08:02:32.834Z,8.70
2022-09-14T08:03:32.783Z,8.70
2022-09-14T08:04:32.765Z,8.81
2022-09-14T08:05:32.755Z,8.49
2022-09-14T08:06:33.704Z,8.59
2022-09-14T08:07:32.735Z,8.92
2022-09-14T08:08:32.713Z,9.13
2022-09-14T08:09:32.707Z,8.81
2022-09-14T08:10:32.687Z,8.59
2022-09-14T08:11:32.687Z,9.02
2022-09-14T08:12:32.657Z,9.02
2022-09-14T08:13:32.659Z,8.59
2022-09-14T08:14:32.638Z,9.13
2022-09-14T08:15:32.628Z,9.02
2022-09-14T08:16:33.614Z,8.49
2022-09-14T08:17:32.629Z,8.70
2022-09-14T08:18:32.594Z,9.13
2022-09-14T08:19:32.572Z,9.02
2022-09-14T08:20:32.563Z,9.13
2022-09-14T08:21:32.578Z,9.13
2022-09-14T08:22:32.533Z,8.70
2022-09-14T08:23:32.516Z,9.02
2022-09-14T08:24:32.502Z,8.70
2022-09-14T08:25:32.492Z,8.70
2022-09-14T08:26:32.497Z,9.02
2022-09-14T08:27:32.463Z,9.13
2022-09-14T08:28:32.442Z,9.24
2022-09-14T08:29:32.443Z,9.02
2022-09-14T08:30:32.421Z,8.81
2022-09-14T08:31:32.465Z,8.49
2022-09-14T08:32:32.394Z,8.92
2022-09-14T08:33:32.385Z,8.59
2022-09-14T08:34:32.376Z,8.81
2022-09-14T08:35:56.321Z,8.49
2022-09-14T08:36:33.356Z,8.92
2022-09-14T08:37:32.336Z,9.13
2022-09-14T08:38:32.316Z,8.70
2022-09-14T08:39:32.307Z,9.02
2022-09-14T08:40:32.355Z,8.70
2022-09-14T08:41:32.278Z,8.49
2022-09-14T08:42:32.269Z,9.02
2022-09-14T08:43:32.248Z,8.70
2022-09-14T08:44:32.235Z,8.81
2022-09-14T08:45:32.257Z,9.13
2022-09-14T08:46:32.211Z,8.59
2022-09-14T08:47:32.201Z,8.70
2022-09-14T08:48:32.180Z,8.70
2022-09-14T08:49:32.170Z,8.92
2022-09-14T08:50:35.735Z,8.81
2022-09-14T08:51:33.151Z,9.24
2022-09-14T08:52:32.129Z,8.59
2022-09-14T08:53:32.122Z,8.59
2022-09-14T08:54:32.101Z,8.70
2022-09-14T08:55:32.093Z,9.13
2022-09-14T08:56:32.082Z,8.92
2022-09-14T08:57:32.062Z,8.70
2022-09-14T08:58:32.064Z,9.02
2022-09-14T08:59:32.034Z,8.59
2022-09-14T09:00:32.063Z,8.59
2022-09-14T09:01:32.015Z,8.70
2022-09-14T09:02:32.004Z,8.70
2022-09-14T09:03:32.077Z,9.02
2022-09-14T09:04:31.965Z,8.49
2022-09-14T09:05:31.965Z,8.70
2022-09-14T09:06:31.945Z,8.81
2022-09-14T09:07:31.927Z,8.92
2022-09-14T09:08:31.912Z,8.92
2022-09-14T09:09:31.909Z,8.81
2022-09-14T09:10:31.898Z,8.49
2022-09-14T09:11:31.879Z,9.13
2022-09-14T09:12:31.857Z,8.70
2022-09-14T09:13:31.850Z,8.81
2022-09-14T09:14:31.834Z,9.02
2022-09-14T09:15:31.830Z,9.13
2022-09-14T09:16:31.913Z,8.81
2022-09-14T09:17:31.809Z,9.24
2022-09-14T09:18:31.781Z,8.70
2022-09-14T09:19:31.771Z,9.24
2022-09-14T09:20:31.760Z,8.70
2022-09-14T09:21:31.742Z,9.02
2022-09-14T09:22:31.731Z,9.02
2022-09-14T09:23:31.765Z,8.70
2022-09-14T09:24:35.212Z,8.81
2022-09-14T09:25:32.703Z,8.70
2022-09-14T09:26:31.675Z,8.70
2022-09-14T09:27:31.670Z,8.59
2022-09-14T09:28:31.653Z,8.59
2022-09-14T09:29:31.644Z,8.70
2022-09-14T09:30:31.624Z,8.59
2022-09-14T09:31:31.646Z,8.59
2022-09-14T09:32:31.591Z,8.59
2022-09-14T09:33:31.584Z,8.81
2022-09-14T09:34:31.575Z,8.59
2022-09-14T09:35:31.576Z,8.59
2022-09-14T09:36:31.547Z,9.02
2022-09-14T09:37:31.537Z,9.02
2022-09-14T09:38:31.527Z,8.59
2022-09-14T09:39:31.530Z,8.59
2022-09-14T09:40:31.530Z,8.70
2022-09-14T09:41:31.479Z,8.70
2022-09-14T09:42:31.458Z,8.59
2022-09-14T09:43:48.887Z,8.92
2022-09-14T09:44:32.428Z,8.59
2022-09-14T09:45:31.439Z,8.59
2022-09-14T09:46:31.469Z,8.81
2022-09-14T09:47:31.401Z,8.59
2022-09-14T09:48:31.380Z,9.24
2022-09-14T09:49:31.371Z,8.81
2022-09-14T09:50:31.361Z,9.02
2022-09-14T09:51:31.352Z,9.02
2022-09-14T09:52:33.005Z,8.70
2022-09-14T09:53:31.312Z,9.02
2022-09-14T09:54:31.300Z,8.70
2022-09-14T09:55:31.306Z,8.92
2022-09-14T09:56:31.273Z,9.02
2022-09-14T09:57:31.271Z,8.70
2022-09-14T09:58:31.243Z,8.59
2022-09-14T09:59:31.242Z,8.70
2022-09-14T10:00:31.224Z,8.81
2022-09-14T10:01:31.360Z,8.81
2022-09-14T10:02:31.273Z,8.70
2022-09-14T10:03:31.177Z,8.70
2022-09-14T10:04:31.165Z,8.70
2022-09-14T10:05:31.169Z,8.70
2022-09-14T10:06:31.137Z,8.59
2022-09-14T10:07:31.128Z,9.67
2022-09-14T10:08:31.108Z,8.59
2022-09-14T10:09:31.108Z,8.81
2022-09-14T10:10:31.098Z,8.59
2022-09-14T10:11:31.078Z,9.02
2022-09-14T10:12:31.060Z,8.70
2022-09-14T10:13:33.450Z,8.81
2022-09-14T10:14:31.029Z,8.59
2022-09-14T10:15:31.034Z,9.13
2022-09-14T10:16:31.097Z,8.59
2022-09-14T10:17:31.002Z,8.81
2022-09-14T10:18:30.984Z,9.13
2022-09-14T10:19:30.980Z,8.70
2022-09-14T10:20:30.951Z,8.92
2022-09-14T10:21:30.941Z,8.70
2022-09-14T10:22:30.923Z,8.59
2022-09-14T10:23:30.925Z,8.59
2022-09-14T10:24:30.903Z,9.02
2022-09-14T10:25:30.893Z,8.92
2022-09-14T10:26:30.873Z,8.59
2022-09-14T10:27:34.301Z,8.49
2022-09-14T10:28:31.844Z,8.70
2022-09-14T10:29:30.844Z,8.59
2022-09-14T10:30:30.815Z,8.70
2022-09-14T10:31:30.832Z,8.92
2022-09-14T10:32:30.797Z,8.59
2022-09-14T10:33:30.776Z,8.70
2022-09-14T10:34:30.777Z,9.02
2022-09-14T10:35:30.757Z,8.59
2022-09-14T10:36:30.750Z,8.70
2022-09-14T10:37:30.737Z,8.81
2022-09-14T10:38:30.719Z,8.81
2022-09-14T10:39:30.708Z,8.70
2022-09-14T10:40:30.743Z,8.70
2022-09-14T10:41:30.678Z,8.59
2022-09-14T10:42:30.687Z,8.70
2022-09-14T10:43:30.669Z,8.70
2022-09-14T10:44:30.640Z,8.81
2022-09-14T10:45:30.620Z,9.02
2022-09-14T10:46:30.707Z,8.70
2022-09-14T10:47:30.602Z,8.59
2022-09-14T10:48:30.586Z,8.59
2022-09-14T10:49:30.582Z,8.59
2022-09-14T10:50:30.554Z,8.49
2022-09-14T10:51:30.555Z,8.70
2022-09-14T10:52:30.533Z,8.59
2022-09-14T10:53:30.514Z,8.70
2022-09-14T10:54:30.515Z,8.70
2022-09-14T10:55:30.494Z,8.59
2022-09-14T10:56:30.474Z,8.92
2022-09-14T10:57:30.465Z,8.81
2022-09-14T10:58:30.461Z,8.81
2022-09-14T10:59:30.445Z,8.49
2022-09-14T11:00:30.426Z,8.70
2022-09-14T11:01:30.545Z,8.70
2022-09-14T11:02:30.505Z,8.70
2022-09-14T11:03:30.387Z,9.02
2022-09-14T11:04:30.377Z,8.70
2022-09-14T11:05:30.358Z,8.70
2022-09-14T11:06:30.348Z,8.70
2022-09-14T11:07:30.328Z,8.70
2022-09-14T11:08:30.319Z,8.70
2022-09-14T11:09:30.313Z,8.59
2022-09-14T11:10:30.289Z,8.49
2022-09-14T11:11:30.279Z,9.02
2022-09-14T11:12:30.260Z,8.59
2022-09-14T11:13:30.251Z,8.59
2022-09-14T11:14:30.240Z,8.81
2022-09-14T11:15:30.221Z,8.70
2022-09-14T11:16:30.258Z,8.92
2022-09-14T11:17:30.202Z,8.27
2022-09-14T11:18:30.184Z,8.59
2022-09-14T11:19:30.182Z,8.59
2022-09-14T11:20:30.161Z,8.70
2022-09-14T11:21:30.143Z,8.59
2022-09-14T11:22:30.137Z,8.59
2022-09-14T11:23:30.238Z,8.49
2022-09-14T11:24:30.112Z,8.59
2022-09-14T11:25:30.094Z,8.70
2022-09-14T11:26:30.074Z,8.59
2022-09-14T11:27:30.073Z,8.59
2022-09-14T11:28:30.997Z,8.70
2022-09-14T11:29:30.045Z,8.70
2022-09-14T11:30:30.128Z,8.81
2022-09-14T11:31:30.067Z,8.70
2022-09-14T11:32:29.997Z,9.13
2022-09-14T11:33:31.340Z,8.70
2022-09-14T11:34:29.980Z,8.92
2022-09-14T11:35:29.958Z,8.59
2022-09-14T11:36:29.938Z,8.81
2022-09-14T11:37:29.929Z,9.02
2022-09-14T11:38:29.913Z,8.81
2022-09-14T11:39:29.919Z,8.70
2022-09-14T11:40:29.991Z,9.02
2022-09-14T11:41:29.888Z,8.49
2022-09-14T11:42:29.860Z,8.92
2022-09-14T11:43:29.859Z,8.70
2022-09-14T11:44:29.841Z,9.02
2022-09-14T11:45:29.829Z,8.49
2022-09-14T11:46:29.845Z,9.02
2022-09-14T11:47:29.802Z,9.02
2022-09-14T11:48:45.916Z,8.81
2022-09-14T11:49:30.786Z,9.13
2022-09-14T11:50:29.755Z,9.35
2022-09-14T11:51:29.752Z,8.92
2022-09-14T11:52:29.724Z,9.13
2022-09-14T11:53:29.718Z,8.92
2022-09-14T11:54:29.705Z,8.92
2022-09-14T11:55:29.696Z,8.92
2022-09-14T11:56:29.675Z,9.35
2022-09-14T11:57:29.681Z,9.35
2022-09-14T11:58:29.647Z,9.35
2022-09-14T11:59:29.655Z,9.35
2022-09-14T12:00:29.628Z,9.35
2022-09-14T12:01:29.628Z,9.45
2022-09-14T12:02:29.666Z,9.45
2022-09-14T12:03:29.671Z,10.31
2022-09-14T12:04:29.579Z,12.68
2022-09-14T12:05:29.571Z,11.17
2022-09-14T12:06:29.550Z,11.39
2022-09-14T12:07:29.529Z,11.71
2022-09-14T12:08:29.530Z,12.25
2022-09-14T12:09:29.511Z,11.17
2022-09-14T12:10:29.496Z,11.49
2022-09-14T12:11:29.480Z,12.35
2022-09-14T12:12:29.461Z,15.25
2022-09-14T12:13:29.454Z,14.29
2022-09-14T12:14:29.443Z,14.39
2022-09-14T12:15:29.457Z,13.32
2022-09-14T12:16:33.905Z,12.57
2022-09-14T12:17:45.710Z,12.25
2022-09-14T12:18:30.397Z,11.71
2022-09-14T12:19:29.373Z,11.82
2022-09-14T12:20:29.377Z,11.28
2022-09-14T12:21:29.344Z,10.85
2022-09-14T12:22:29.331Z,10.85
2022-09-14T12:23:29.326Z,11.39
2022-09-14T12:24:29.303Z,11.39
2022-09-14T12:25:29.292Z,10.85
2022-09-14T12:26:29.278Z,10.85
2022-09-14T12:27:29.268Z,10.74
2022-09-14T12:28:29.268Z,11.17
2022-09-14T12:29:29.250Z,10.21
2022-09-14T12:30:29.227Z,11.17
2022-09-14T12:31:29.286Z,10.53
2022-09-14T12:32:29.202Z,10.53
2022-09-14T12:33:29.188Z,10.96
2022-09-14T12:34:29.181Z,10.53
2022-09-14T12:35:29.155Z,10.53
2022-09-14T12:36:29.149Z,10.31
2022-09-14T12:37:29.136Z,10.74
2022-09-14T12:38:30.075Z,10.85
2022-09-14T12:39:29.108Z,10.53
2022-09-14T12:40:29.277Z,10.85
2022-09-14T12:41:29.070Z,10.74
2022-09-14T12:42:29.063Z,10.74
2022-09-14T12:43:29.051Z,10.53
2022-09-14T12:44:29.059Z,10.96
2022-09-14T12:45:29.022Z,10.53
2022-09-14T12:46:29.052Z,10.74
2022-09-14T12:47:28.993Z,10.42
2022-09-14T12:48:28.993Z,10.31
2022-09-14T12:49:28.963Z,10.74
2022-09-14T12:50:28.969Z,10.63
2022-09-14T12:51:28.955Z,10.96
2022-09-14T12:52:28.934Z,10.53
2022-09-14T12:53:28.925Z,10.21
2022-09-14T12:54:28.906Z,10.63
2022-09-14T12:55:28.895Z,10.42
2022-09-14T12:56:28.878Z,10.53
2022-09-14T12:57:28.868Z,10.63
2022-09-14T12:58:28.867Z,10.53
2022-09-14T12:59:28.838Z,10.42
2022-09-14T13:00:28.838Z,10.21
2022-09-14T13:01:28.902Z,10.31
2022-09-14T13:02:28.931Z,10.10
2022-09-14T13:03:28.788Z,10.42
2022-09-14T13:04:28.776Z,10.31
2022-09-14T13:05:28.756Z,10.63
2022-09-14T13:06:28.758Z,10.10
2022-09-14T13:07:28.729Z,10.10
2022-09-14T13:08:28.731Z,10.63
2022-09-14T13:09:28.700Z,10.53
2022-09-14T13:10:28.713Z,10.31
2022-09-14T13:11:28.681Z,10.10
2022-09-14T13:12:28.671Z,10.53
2022-09-14T13:13:28.665Z,10.53
2022-09-14T13:14:28.649Z,10.31
2022-09-14T13:15:28.681Z,10.21
2022-09-14T13:16:28.690Z,10.21